Time;durP1;ratioP1;P1;durP2;ratioP2;P2;SDS_P1;SDS_P2;PMS_P1;PMS_P2;Temp;Humidity;BMP_temperature;BMP_pressure;BME280_temperature;BME280_humidity;BME280_pressure;Samples;Min_cycle;Max_cycle;Signal;HPM_P1;HPM_P2
2022/05/10 00:00:22;;;;;;;;;;;;;;;10.12;100.00;96448.94;1039055;28;19917;-71
2022/05/10 00:00:57;;;;;;;;;;;;;;;10.11;100.00;96439.50;1038862;28;19913;-71
2022/05/10 00:01:29;;;;;;;;;;;;;;;10.11;100.00;96447.34;1030371;28;19906;-70
2022/05/10 00:01:59;;;;;;;;;;;;;;;10.08;100.00;96442.59;1030900;28;19929;-71
2022/05/10 00:02:30;;;;;;;;;;;;;;;10.06;100.00;96436.00;1030975;28;20342;-70
2022/05/10 00:03:00;;;;;;;;;;;;;;;10.08;100.00;96445.22;1027640;28;20666;-70
2022/05/10 00:03:32;;;;;;;;;;;;;;;10.07;100.00;96438.38;1031021;28;20335;-71
2022/05/10 00:04:02;;;;;;;;;;;;;;;10.07;100.00;96438.38;1030865;28;20367;-69
2022/05/10 00:04:33;;;;;;;;;;;;;;;10.09;100.00;96440.75;1031395;28;19945;-71
2022/05/10 00:05:03;;;;;;;;;;;;;;;10.09;100.00;96436.34;1030671;28;19969;-71
2022/05/10 00:05:35;;;;;;;;;;;;;;;10.08;100.00;96439.97;1031029;28;20572;-71
2022/05/10 00:06:05;;;;;;;;;;;;;;;10.09;100.00;96435.50;1031288;28;19956;-70
2022/05/10 00:06:36;;;;;;;;;;;;;;;10.09;100.00;96440.75;1034657;28;19940;-70
2022/05/10 00:07:10;;;;;;;;;;;;;;;10.09;100.00;96441.56;1027063;28;20433;-71
2022/05/10 00:07:40;;;;;;;;;;;;;;;10.09;100.00;96435.50;1030967;28;19957;-70
2022/05/10 00:08:11;;;;;;;;;;;;;;;10.08;100.00;96432.09;1022697;28;19961;-70
2022/05/10 00:08:41;;;;;;;;;;;;;;;10.05;100.00;96435.19;1022917;29;19921;-70
2022/05/10 00:09:12;;;;;;;;;;;;;;;10.04;100.00;96428.38;1022754;29;20009;-71
2022/05/10 00:09:42;;;;;;;;;;;;;;;10.03;100.00;96432.03;1026376;28;19906;-70
2022/05/10 00:10:12;;;;;;;;;;;;;;;10.03;100.00;96432.03;1030857;28;19969;-70
2022/05/10 00:10:43;;;;;;;;;;;;;;;10.01;100.00;96428.88;1030928;28;19922;-72
2022/05/10 00:11:14;;;;;;;;;;;;;;;9.98;100.00;96429.34;1030836;28;20399;-70
2022/05/10 00:11:44;;;;;;;;;;;;;;;9.98;100.00;96434.59;1035119;28;19945;-70
2022/05/10 00:12:15;;;;;;;;;;;;;;;9.96;100.00;96435.84;1034928;28;19917;-70
2022/05/10 00:12:46;;;;;;;;;;;;;;;9.93;100.00;96431.91;1031231;28;19906;-70
2022/05/10 00:13:16;;;;;;;;;;;;;;;9.93;100.00;96436.38;1031963;28;19969;-69
2022/05/10 00:13:49;;;;;;;;;;;;;;;9.90;100.00;96427.13;1035521;28;19944;-70
2022/05/10 00:14:19;;;;;;;;;;;;;;;9.86;100.00;96432.06;1038974;28;19921;-70
2022/05/10 00:14:50;;;;;;;;;;;;;;;9.84;100.00;96433.34;1039200;28;20297;-70
2022/05/10 00:15:20;;;;;;;;;;;;;;;9.83;100.00;96431.75;1043102;28;19912;-70
2022/05/10 00:15:51;;;;;;;;;;;;;;;9.83;100.00;96434.38;1034823;28;19910;-70
2022/05/10 00:16:21;;;;;;;;;;;;;;;9.79;100.00;96436.69;1030888;28;20290;-70
2022/05/10 00:16:51;;;;;;;;;;;;;;;9.77;100.00;96435.34;1029824;28;19909;-70
2022/05/10 00:17:26;;;;;;;;;;;;;;;9.75;100.00;96429.53;1030761;28;19902;-70
2022/05/10 00:17:56;;;;;;;;;;;;;;;9.76;100.00;96428.50;1031014;28;20040;-71
2022/05/10 00:18:27;;;;;;;;;;;;;;;9.75;100.00;96434.78;1031869;28;20205;-71
2022/05/10 00:18:57;;;;;;;;;;;;;;;9.74;100.00;96433.19;1034989;28;19902;-72
2022/05/10 00:19:30;;;;;;;;;;;;;;;9.71;100.00;96428.44;1031078;28;20359;-70
2022/05/10 00:20:00;;;;;;;;;;;;;;;9.70;100.00;96432.88;1026090;28;20294;-71
2022/05/10 00:20:30;;;;;;;;;;;;;;;9.68;100.00;96435.72;1027306;28;19910;-70
2022/05/10 00:21:01;;;;;;;;;;;;;;;9.67;100.00;96431.53;1031576;28;19954;-70
2022/05/10 00:21:31;;;;;;;;;;;;;;;9.70;100.00;96432.09;1035205;28;20302;-70
2022/05/10 00:22:01;;;;;;;;;;;;;;;9.68;100.00;96429.69;1034875;28;19944;-71
2022/05/10 00:22:33;;;;;;;;;;;;;;;9.65;100.00;96430.97;1035075;28;19916;-70
2022/05/10 00:23:03;;;;;;;;;;;;;;;9.64;100.00;96437.25;1035189;28;19906;-70
2022/05/10 00:23:37;;;;;;;;;;;;;;;9.62;100.00;96431.47;1039471;28;20012;-69
2022/05/10 00:24:07;;;;;;;;;;;;;;;9.61;100.00;96435.09;1041929;28;20018;-70
2022/05/10 00:24:37;;;;;;;;;;;;;;;9.61;100.00;96429.84;1043600;28;20278;-71
2022/05/10 00:25:09;;;;;;;;;;;;;;;9.60;100.00;96436.13;1043258;28;20029;-70
2022/05/10 00:25:41;;;;;;;;;;;;;;;9.59;100.00;96433.75;1034968;28;19910;-71
2022/05/10 00:26:14;;;;;;;;;;;;;;;9.59;100.00;96434.56;1035145;28;20471;-70
2022/05/10 00:26:45;;;;;;;;;;;;;;;9.57;100.00;96431.38;1029994;28;19916;-70
2022/05/10 00:27:15;;;;;;;;;;;;;;;9.55;100.00;96430.81;1028144;28;19914;-70
2022/05/10 00:27:45;;;;;;;;;;;;;;;9.57;100.00;96435.81;1034946;28;19910;-70
2022/05/10 00:28:17;;;;;;;;;;;;;;;9.57;100.00;96433.19;1035015;28;20326;-71
2022/05/10 00:28:47;;;;;;;;;;;;;;;9.57;100.00;96428.75;1035182;28;19910;-70
2022/05/10 00:29:18;;;;;;;;;;;;;;;9.58;100.00;96430.34;1030932;28;19942;-70
2022/05/10 00:29:48;;;;;;;;;;;;;;;9.54;100.00;96429.22;1030235;28;19905;-68
2022/05/10 00:30:19;;;;;;;;;;;;;;;9.53;100.00;96427.66;1032353;28;20589;-69
2022/05/10 00:30:49;;;;;;;;;;;;;;;9.54;100.00;96429.22;1031120;28;20649;-71
2022/05/10 00:31:19;;;;;;;;;;;;;;;9.52;100.00;96431.28;1034920;28;20417;-70
2022/05/10 00:31:50;;;;;;;;;;;;;;;9.53;100.00;96432.09;1030879;28;19906;-70
2022/05/10 00:32:20;;;;;;;;;;;;;;;9.52;100.00;96428.66;1026653;28;20382;-70
2022/05/10 00:32:50;;;;;;;;;;;;;;;9.52;100.00;96428.66;1031028;28;19902;-70
2022/05/10 00:33:23;;;;;;;;;;;;;;;9.49;100.00;96431.78;1034904;28;20471;-70
2022/05/10 00:33:53;;;;;;;;;;;;;;;9.48;100.00;96432.00;1034841;28;19905;-73
2022/05/10 00:34:24;;;;;;;;;;;;;;;9.47;100.00;96433.84;1034583;28;19997;-72
2022/05/10 00:34:54;;;;;;;;;;;;;;;9.47;100.00;96439.06;1027108;28;19906;-69
2022/05/10 00:35:25;;;;;;;;;;;;;;;9.45;100.00;96436.66;1032252;28;19906;-70
2022/05/10 00:35:55;;;;;;;;;;;;;;;9.43;100.00;96432.72;1035014;28;19921;-69
2022/05/10 00:36:26;;;;;;;;;;;;;;;9.24;100.00;96410.41;1026676;28;19910;-70
2022/05/10 00:36:56;;;;;;;;;;;;;;;9.44;100.00;96431.69;1026431;28;19906;-70
2022/05/10 00:37:26;;;;;;;;;;;;;;;9.41;100.00;96434.78;1023168;28;19942;-70
2022/05/10 00:37:59;;;;;;;;;;;;;;;9.40;100.00;96433.19;1023192;28;19911;-70
2022/05/10 00:38:32;;;;;;;;;;;;;;;9.40;100.00;96430.59;1027682;28;19915;-71
2022/05/10 00:39:03;;;;;;;;;;;;;;;9.38;100.00;96436.03;1027090;28;19911;-70
2022/05/10 00:39:33;;;;;;;;;;;;;;;9.38;100.00;96436.03;1023227;28;19918;-71
2022/05/10 00:40:04;;;;;;;;;;;;;;;9.38;100.00;96435.25;1027474;28;19914;-70
2022/05/10 00:40:37;;;;;;;;;;;;;;;9.36;100.00;96432.09;1029453;28;20253;-70
2022/05/10 00:41:15;;;;;;;;;;;;;;;9.34;100.00;96434.13;1035084;28;19951;-70
2022/05/10 00:41:55;;;;;;;;;;;;;;;9.32;100.00;96431.78;1031695;28;19984;-70
2022/05/10 00:42:30;;;;;;;;;;;;;;;9.31;100.00;96434.63;1029232;28;19910;-70
2022/05/10 00:43:20;;;;;;;;;;;;;;;9.31;100.00;96432.00;1036698;28;19913;-71
2022/05/10 00:43:57;;;;;;;;;;;;;;;9.29;100.00;96434.03;1036069;28;19913;-70
2022/05/10 00:44:31;;;;;;;;;;;;;;;9.26;100.00;96437.16;1042822;28;19916;-70
2022/05/10 00:45:08;;;;;;;;;;;;;;;9.26;100.00;96437.16;1039016;28;19920;-69
2022/05/10 00:45:39;;;;;;;;;;;;;;;9.25;100.00;96431.09;1037063;28;20036;-71
2022/05/10 00:46:14;;;;;;;;;;;;;;;9.24;100.00;96433.97;1034982;28;19913;-70
2022/05/10 00:46:46;;;;;;;;;;;;;;;9.24;100.00;96433.97;1034979;28;19941;-71
2022/05/10 00:47:18;;;;;;;;;;;;;;;9.23;100.00;96432.41;1035725;28;19971;-70
2022/05/10 00:47:48;;;;;;;;;;;;;;;9.24;100.00;96431.34;1035095;28;20383;-71
2022/05/10 00:48:22;;;;;;;;;;;;;;;9.20;100.00;96437.06;1035133;28;19909;-70
2022/05/10 00:48:55;;;;;;;;;;;;;;;9.20;100.00;96437.06;1030698;28;19934;-70
2022/05/10 00:49:27;;;;;;;;;;;;;;;9.18;100.00;96433.88;1031802;28;20422;-70
2022/05/10 00:49:59;;;;;;;;;;;;;;;9.18;100.00;96435.69;1026127;28;19911;-70
2022/05/10 00:51:01;;;;;;;;;;;;;;;8.97;100.00;96409.19;1023647;28;19917;-70
2022/05/10 00:51:43;;;;;;;;;;;;;;;9.16;100.00;96433.34;1015306;29;20011;-70
2022/05/10 00:52:16;;;;;;;;;;;;;;;9.16;100.00;96432.53;1014569;29;19915;-70
2022/05/10 00:52:57;;;;;;;;;;;;;;;9.15;100.00;96439.59;1013404;29;19915;-69
2022/05/10 00:53:39;;;;;;;;;;;;;;;9.16;100.00;96438.56;1018666;29;20335;-70
2022/05/10 00:54:20;;;;;;;;;;;;;;;9.15;100.00;96439.59;1026371;28;20287;-70
2022/05/10 00:55:05;;;;;;;;;;;;;;;9.14;100.00;96438.00;1039216;28;19967;-70
2022/05/10 00:55:38;;;;;;;;;;;;;;;9.15;100.00;96439.59;1038804;28;19917;-70
2022/05/10 00:56:12;;;;;;;;;;;;;;;9.15;100.00;96437.00;1038862;28;19913;-70
2022/05/10 00:56:44;;;;;;;;;;;;;;;9.16;100.00;96443.03;1034891;28;19910;-70
2022/05/10 00:57:43;;;;;;;;;;;;;;;9.16;100.00;96435.94;1030449;28;19913;-69
2022/05/10 00:58:19;;;;;;;;;;;;;;;9.17;100.00;96444.59;1026953;28;20373;-72
2022/05/10 00:58:56;;;;;;;;;;;;;;;9.15;100.00;96446.66;1024800;28;19910;-71
2022/05/10 00:59:34;;;;;;;;;;;;;;;9.12;100.00;96440.06;1027531;28;19918;-71
2022/05/10 01:00:14;;;;;;;;;;;;;;;9.13;100.00;96435.63;1027241;28;20005;-70
2022/05/10 01:00:44;;;;;;;;;;;;;;;9.11;100.00;96438.47;1030682;28;19947;-70
2022/05/10 01:01:16;;;;;;;;;;;;;;;9.10;100.00;96439.50;1034794;28;19964;-69
2022/05/10 01:01:49;;;;;;;;;;;;;;;9.08;100.00;96438.94;1030964;28;19914;-71
2022/05/10 01:02:21;;;;;;;;;;;;;;;9.08;100.00;96436.31;1026732;28;19921;-70
2022/05/10 01:03:07;;;;;;;;;;;;;;;9.07;100.00;96437.34;1026748;28;19914;-70
2022/05/10 01:03:43;;;;;;;;;;;;;;;9.07;100.00;96432.13;1027707;28;20482;-70
2022/05/10 01:04:15;;;;;;;;;;;;;;;9.06;100.00;96441.00;1033959;28;19919;-71
2022/05/10 01:04:49;;;;;;;;;;;;;;;9.08;100.00;96436.31;1034171;28;19910;-70
2022/05/10 01:05:32;;;;;;;;;;;;;;;9.05;100.00;96442.03;1031976;28;19914;-70
2022/05/10 01:06:08;;;;;;;;;;;;;;;9.03;100.00;96441.47;1034935;28;19914;-71
2022/05/10 01:06:39;;;;;;;;;;;;;;;9.05;100.00;96436.78;1034593;28;20000;-70
2022/05/10 01:07:22;;;;;;;;;;;;;;;9.03;100.00;96438.88;1033423;28;20630;-70
2022/05/10 01:07:52;;;;;;;;;;;;;;;9.06;100.00;96441.00;1030883;28;19914;-71
2022/05/10 01:08:35;;;;;;;;;;;;;;;9.02;100.00;96437.28;1030605;28;19922;-70
2022/05/10 01:09:06;;;;;;;;;;;;;;;9.04;100.00;96444.88;1030054;28;19910;-71
2022/05/10 01:09:46;;;;;;;;;;;;;;;9.05;100.00;96442.03;1027968;28;19996;-70
2022/05/10 01:10:18;;;;;;;;;;;;;;;9.03;100.00;96433.63;1030764;28;20302;-70
2022/05/10 01:11:02;;;;;;;;;;;;;;;9.02;100.00;96432.03;1032326;28;19921;-70
2022/05/10 01:11:34;;;;;;;;;;;;;;;9.01;100.00;96438.28;1027795;28;19911;-70
2022/05/10 01:12:07;;;;;;;;;;;;;;;9.03;100.00;96438.06;1026829;28;19910;-70
2022/05/10 01:12:41;;;;;;;;;;;;;;;9.04;100.00;96440.44;1029170;28;19965;-71
2022/05/10 01:13:14;;;;;;;;;;;;;;;9.00;100.00;96434.09;1032083;28;20407;-70
2022/05/10 01:13:49;;;;;;;;;;;;;;;9.01;100.00;96434.88;1036081;28;20287;-71
2022/05/10 01:14:24;;;;;;;;;;;;;;;9.00;100.00;96433.31;1040527;28;19909;-70
2022/05/10 01:14:55;;;;;;;;;;;;;;;9.00;100.00;96439.31;1038709;28;19919;-69
2022/05/10 01:15:25;;;;;;;;;;;;;;;9.00;100.00;96436.72;1030766;28;20438;-70
2022/05/10 01:16:00;;;;;;;;;;;;;;;8.99;100.00;96437.75;1029785;28;19913;-70
2022/05/10 01:16:30;;;;;;;;;;;;;;;8.98;100.00;96436.13;1030158;28;19914;-71
2022/05/10 01:17:01;;;;;;;;;;;;;;;8.98;100.00;96436.94;1028331;28;19938;-70
2022/05/10 01:17:31;;;;;;;;;;;;;;;8.95;100.00;96431.38;1034693;28;20008;-70
2022/05/10 01:18:01;;;;;;;;;;;;;;;8.95;100.00;96441.84;1030625;28;19914;-71
2022/05/10 01:18:32;;;;;;;;;;;;;;;8.93;100.00;96434.25;1032042;28;20653;-70
2022/05/10 01:19:02;;;;;;;;;;;;;;;8.94;100.00;96432.41;1026589;28;19918;-71
2022/05/10 01:19:32;;;;;;;;;;;;;;;8.93;100.00;96434.25;1022634;29;19919;-69
2022/05/10 01:20:03;;;;;;;;;;;;;;;8.93;100.00;96429.00;1022889;28;19919;-69
2022/05/10 01:20:40;;;;;;;;;;;;;;;8.93;100.00;96433.44;1017520;28;19919;-70
2022/05/10 01:21:24;;;;;;;;;;;;;;;8.90;100.00;96433.91;1027956;28;20036;-70
2022/05/10 01:22:01;;;;;;;;;;;;;;;8.89;100.00;96433.13;1022852;28;20388;-69
2022/05/10 01:22:49;;;;;;;;;;;;;;;8.88;100.00;96435.97;1018812;29;20428;-71
2022/05/10 01:23:29;;;;;;;;;;;;;;;8.85;100.00;96437.25;1018846;28;19911;-70
2022/05/10 01:24:18;;;;;;;;;;;;;;;8.86;100.00;96438.81;1027476;28;20004;-70
2022/05/10 01:24:54;;;;;;;;;;;;;;;8.88;100.00;96435.97;1035838;28;19936;-71
2022/05/10 01:25:43;;;;;;;;;;;;;;;8.87;100.00;96435.16;1036178;28;19964;-70
2022/05/10 01:26:15;;;;;;;;;;;;;;;8.87;100.00;96434.38;1031424;28;20228;-71
2022/05/10 01:27:04;;;;;;;;;;;;;;;8.84;100.00;96432.22;1027558;28;19934;-70
2022/05/10 01:27:37;;;;;;;;;;;;;;;8.84;100.00;96432.22;1031605;28;20403;-71
2022/05/10 01:28:21;;;;;;;;;;;;;;;8.84;100.00;96433.00;1034596;28;19996;-71
2022/05/10 01:28:52;;;;;;;;;;;;;;;8.83;100.00;96433.25;1043276;28;19913;-70
2022/05/10 01:29:24;;;;;;;;;;;;;;;8.89;100.00;96437.56;1039757;28;20444;-70
2022/05/10 01:29:58;;;;;;;;;;;;;;;8.86;100.00;96436.22;1034993;28;19952;-70
2022/05/10 01:30:29;;;;;;;;;;;;;;;8.89;100.00;96437.56;1028593;28;20646;-70
2022/05/10 01:31:02;;;;;;;;;;;;;;;8.86;100.00;96432.78;1028233;28;19942;-71
2022/05/10 01:31:33;;;;;;;;;;;;;;;8.84;100.00;96437.47;1031651;28;20021;-71
2022/05/10 01:34:18;;;;;;;;;;;;;;;8.84;100.00;96433.00;1035270;28;20009;-70
2022/05/10 01:34:48;;;;;;;;;;;;;;;8.86;100.00;96435.41;1036478;28;19921;-71
2022/05/10 01:35:20;;;;;;;;;;;;;;;8.84;100.00;96432.22;1043409;28;19913;-69
2022/05/10 01:35:52;;;;;;;;;;;;;;;8.86;100.00;96432.78;1039912;28;19913;-70
2022/05/10 01:36:24;;;;;;;;;;;;;;;8.85;100.00;96431.19;1035469;28;19973;-70
2022/05/10 01:36:56;;;;;;;;;;;;;;;8.84;100.00;96442.69;1035369;28;19902;-69
2022/05/10 01:37:27;;;;;;;;;;;;;;;8.85;100.00;96436.41;1036578;28;19906;-70
2022/05/10 01:38:02;;;;;;;;;;;;;;;8.83;100.00;96439.28;1036163;28;19909;-70
2022/05/10 01:38:34;;;;;;;;;;;;;;;8.85;100.00;96431.19;1035630;28;19906;-70
2022/05/10 01:39:23;;;;;;;;;;;;;;;8.86;100.00;96433.59;1031282;28;19902;-70
2022/05/10 01:40:22;;;;;;;;;;;;;;;8.86;100.00;96432.78;1027037;28;20224;-72
2022/05/10 01:40:53;;;;;;;;;;;;;;;8.85;100.00;96428.56;1037502;28;19910;-70
2022/05/10 01:41:43;;;;;;;;;;;;;;;8.84;100.00;96435.63;1031462;28;20447;-70
2022/05/10 01:42:17;;;;;;;;;;;;;;;8.81;100.00;96435.31;1033927;28;20414;-72
2022/05/10 01:42:48;;;;;;;;;;;;;;;8.80;100.00;96428.50;1027542;28;20123;-70
2022/05/10 01:43:27;;;;;;;;;;;;;;;8.81;100.00;96435.31;1029683;28;20016;-71
2022/05/10 01:44:13;;;;;;;;;;;;;;;8.79;100.00;96432.16;1033485;28;19902;-71
2022/05/10 01:44:53;;;;;;;;;;;;;;;8.78;100.00;96425.31;1030684;28;19920;-70
2022/05/10 01:45:56;;;;;;;;;;;;;;;8.80;100.00;96436.34;1031802;28;19906;-70
2022/05/10 01:46:30;;;;;;;;;;;;;;;8.81;100.00;96435.31;1024836;28;19950;-71
2022/05/10 01:47:08;;;;;;;;;;;;;;;8.79;100.00;96429.53;1027237;28;19910;-70
2022/05/10 01:47:45;;;;;;;;;;;;;;;8.82;100.00;96431.66;1032697;28;19906;-69
2022/05/10 01:48:16;;;;;;;;;;;;;;;8.80;100.00;96433.72;1027685;28;19993;-70
2022/05/10 01:48:47;;;;;;;;;;;;;;;8.79;100.00;96434.75;1021539;29;19910;-70
2022/05/10 01:49:31;;;;;;;;;;;;;;;8.77;100.00;96432.38;1019448;28;20293;-69
2022/05/10 01:50:21;;;;;;;;;;;;;;;8.77;100.00;96434.19;1021047;29;20503;-70
2022/05/10 01:51:03;;;;;;;;;;;;;;;8.77;100.00;96437.59;1035595;28;22038;-70
2022/05/10 01:51:35;;;;;;;;;;;;;;;8.76;100.00;96424.75;1035389;28;19914;-71
2022/05/10 01:52:09;;;;;;;;;;;;;;;8.78;100.00;96441.78;1040800;28;20317;-70
2022/05/10 01:52:50;;;;;;;;;;;;;;;8.77;100.00;96431.56;1035095;28;19960;-70
2022/05/10 01:53:26;;;;;;;;;;;;;;;8.74;100.00;96431.00;1027277;28;19918;-69
2022/05/10 01:53:56;;;;;;;;;;;;;;;8.74;100.00;96431.00;1023583;28;19992;-71
2022/05/10 01:54:52;;;;;;;;;;;;;;;8.75;100.00;96426.56;1029677;28;19910;-70
2022/05/10 01:55:23;;;;;;;;;;;;;;;8.71;100.00;96426.22;1039674;28;20021;-71
2022/05/10 01:55:54;;;;;;;;;;;;;;;8.71;100.00;96431.47;1041294;28;19963;-71
2022/05/10 01:56:25;;;;;;;;;;;;;;;8.72;100.00;96433.06;1040419;28;19901;-70
2022/05/10 01:56:56;;;;;;;;;;;;;;;8.73;100.00;96426.00;1040188;28;19944;-70
2022/05/10 01:57:26;;;;;;;;;;;;;;;8.71;100.00;96421.00;1028729;28;19934;-71
2022/05/10 01:57:58;;;;;;;;;;;;;;;8.70;100.00;96429.88;1023998;28;19957;-71
2022/05/10 01:58:29;;;;;;;;;;;;;;;8.69;100.00;96433.53;1023941;29;19953;-71
2022/05/10 01:59:00;;;;;;;;;;;;;;;8.69;100.00;96436.16;1028098;28;19907;-71
2022/05/10 01:59:30;;;;;;;;;;;;;;;8.68;100.00;96431.94;1028247;28;20331;-70
2022/05/10 02:00:08;;;;;;;;;;;;;;;8.67;100.00;96435.59;1031595;28;19917;-70
2022/05/10 02:00:38;;;;;;;;;;;;;;;8.67;100.00;96430.34;1037273;28;19913;-69
2022/05/10 02:01:10;;;;;;;;;;;;;;;8.69;100.00;96436.16;1035439;28;20000;-70
2022/05/10 02:01:41;;;;;;;;;;;;;;;8.66;100.00;96439.22;1030665;28;19906;-73
2022/05/10 02:02:11;;;;;;;;;;;;;;;8.66;100.00;96434.00;1028556;28;20363;-71
2022/05/10 02:02:43;;;;;;;;;;;;;;;8.69;100.00;96435.38;1032397;28;19902;-70
2022/05/10 02:03:20;;;;;;;;;;;;;;;8.67;100.00;96430.34;1038564;28;19906;-70
2022/05/10 02:03:51;;;;;;;;;;;;;;;8.65;100.00;96435.03;1036154;28;19952;-70
2022/05/10 02:04:23;;;;;;;;;;;;;;;8.65;100.00;96434.22;1037889;28;19906;-70
2022/05/10 02:04:55;;;;;;;;;;;;;;;8.66;100.00;96434.00;1036247;28;20424;-69
2022/05/10 02:05:32;;;;;;;;;;;;;;;8.64;100.00;96440.50;1032164;28;19961;-70
2022/05/10 02:06:21;;;;;;;;;;;;;;;8.64;100.00;96438.66;1032084;28;19914;-71
2022/05/10 02:06:51;;;;;;;;;;;;;;;8.62;100.00;96435.50;1032308;28;20000;-71
2022/05/10 02:07:22;;;;;;;;;;;;;;;8.61;100.00;96433.09;1039002;28;19905;-71
2022/05/10 02:07:56;;;;;;;;;;;;;;;8.60;100.00;96434.94;1040327;28;20354;-71
2022/05/10 02:08:44;;;;;;;;;;;;;;;8.61;100.00;96438.34;1035626;28;19906;-71
2022/05/10 02:09:19;;;;;;;;;;;;;;;8.58;100.00;96431.75;1032055;28;19905;-70
2022/05/10 02:09:57;;;;;;;;;;;;;;;8.60;100.00;96436.75;1038975;28;19940;-70
2022/05/10 02:10:30;;;;;;;;;;;;;;;8.59;100.00;96435.97;1044436;28;19995;-70
2022/05/10 02:11:02;;;;;;;;;;;;;;;8.57;100.00;96435.38;1040267;28;19901;-70
2022/05/10 02:11:44;;;;;;;;;;;;;;;8.57;100.00;96440.63;1031756;28;19962;-72
2022/05/10 02:12:14;;;;;;;;;;;;;;;8.58;100.00;96436.97;1031957;28;19910;-70
2022/05/10 02:12:46;;;;;;;;;;;;;;;8.59;100.00;96438.56;1032289;28;19902;-71
2022/05/10 02:13:18;;;;;;;;;;;;;;;8.57;100.00;96430.16;1035481;28;19950;-72
2022/05/10 02:13:50;;;;;;;;;;;;;;;8.58;100.00;96431.75;1032592;28;19902;-70
2022/05/10 02:14:22;;;;;;;;;;;;;;;8.59;100.00;96435.97;1032143;28;20008;-71
2022/05/10 02:15:03;;;;;;;;;;;;;;;8.61;100.00;96435.72;1027898;28;19945;-70
2022/05/10 02:15:34;;;;;;;;;;;;;;;8.60;100.00;96434.13;1028045;28;20347;-70
2022/05/10 02:16:20;;;;;;;;;;;;;;;8.60;100.00;96437.53;1032104;28;20005;-70
2022/05/10 02:16:52;;;;;;;;;;;;;;;8.61;100.00;96436.50;1039341;28;19979;-69
2022/05/10 02:17:43;;;;;;;;;;;;;;;8.60;100.00;96429.69;1038593;28;19909;-70
2022/05/10 02:18:15;;;;;;;;;;;;;;;8.57;100.00;96430.16;1036197;28;20782;-71
2022/05/10 02:18:47;;;;;;;;;;;;;;;8.55;100.00;96427.00;1028924;28;19911;-69
2022/05/10 02:19:17;;;;;;;;;;;;;;;8.54;100.00;96435.84;1019997;29;19915;-70
2022/05/10 02:19:53;;;;;;;;;;;;;;;8.56;100.00;96431.19;1027702;28;19914;-70
2022/05/10 02:20:43;;;;;;;;;;;;;;;8.53;100.00;96433.47;1027623;28;20005;-72
2022/05/10 02:21:16;;;;;;;;;;;;;;;8.34;100.00;96393.59;1034900;28;19909;-72
2022/05/10 02:21:57;;;;;;;;;;;;;;;8.57;100.00;96432.78;1041627;28;19909;-70
2022/05/10 02:22:36;;;;;;;;;;;;;;;8.61;100.00;96431.28;1036297;28;19914;-70
2022/05/10 02:23:16;;;;;;;;;;;;;;;8.58;100.00;96430.94;1032263;28;19916;-70
2022/05/10 02:23:47;;;;;;;;;;;;;;;8.56;100.00;96422.56;1032316;28;19909;-70
2022/05/10 02:24:29;;;;;;;;;;;;;;;8.54;100.00;96430.63;1037068;28;19910;-70
2022/05/10 02:25:04;;;;;;;;;;;;;;;8.52;100.00;96430.06;1043386;28;19909;-71
2022/05/10 02:25:38;;;;;;;;;;;;;;;8.50;100.00;96440.75;1036265;28;19916;-68
2022/05/10 02:26:10;;;;;;;;;;;;;;;8.52;100.00;96435.31;1028146;28;19914;-70
2022/05/10 02:26:43;;;;;;;;;;;;;;;8.50;100.00;96432.13;1027947;28;19993;-69
2022/05/10 02:27:24;;;;;;;;;;;;;;;8.49;100.00;96431.31;1028183;28;19914;-69
2022/05/10 02:27:55;;;;;;;;;;;;;;;8.52;100.00;96431.88;1034195;28;19914;-70
2022/05/10 02:28:26;;;;;;;;;;;;;;;8.50;100.00;96429.50;1037948;28;20437;-70
2022/05/10 02:28:59;;;;;;;;;;;;;;;8.50;100.00;96429.50;1040130;28;19910;-72
2022/05/10 02:29:38;;;;;;;;;;;;;;;8.50;100.00;96434.72;1040314;28;19917;-70
2022/05/10 02:30:09;;;;;;;;;;;;;;;8.50;100.00;96432.13;1037449;28;20294;-71
2022/05/10 02:30:40;;;;;;;;;;;;;;;8.52;100.00;96435.31;1032069;28;19914;-69
2022/05/10 02:31:20;;;;;;;;;;;;;;;8.53;100.00;96439.50;1028098;28;19914;-70
2022/05/10 02:33:32;;;;;;;;;;;;;;;8.46;100.00;96431.00;1033565;28;19969;-70
2022/05/10 02:34:03;;;;;;;;;;;;;;;8.43;100.00;96431.47;1037230;28;19948;-70
2022/05/10 02:34:34;;;;;;;;;;;;;;;8.42;100.00;96425.44;1042759;28;20305;-72
2022/05/10 02:35:05;;;;;;;;;;;;;;;8.39;100.00;96428.50;1039333;28;19920;-70
2022/05/10 02:35:38;;;;;;;;;;;;;;;8.39;100.00;96427.72;1028627;28;19925;-70
2022/05/10 02:36:08;;;;;;;;;;;;;;;8.44;100.00;96430.41;1032230;28;19916;-71
2022/05/10 02:36:41;;;;;;;;;;;;;;;8.49;100.00;96436.56;1028446;28;19917;-70
2022/05/10 02:37:12;;;;;;;;;;;;;;;8.56;100.00;96439.03;1028568;28;19996;-70
2022/05/10 02:37:42;;;;;;;;;;;;;;;8.56;100.00;96433.81;1032115;28;20328;-72
2022/05/10 02:38:14;;;;;;;;;;;;;;;8.53;100.00;96430.88;1028376;28;19961;-70
2022/05/10 02:38:44;;;;;;;;;;;;;;;8.51;100.00;96433.69;1028511;28;20033;-70
2022/05/10 02:39:14;;;;;;;;;;;;;;;8.48;100.00;96437.59;1027892;28;19910;-69
2022/05/10 02:39:47;;;;;;;;;;;;;;;8.47;100.00;96435.97;1023988;28;19907;-71
2022/05/10 02:40:18;;;;;;;;;;;;;;;8.50;100.00;96434.72;1032020;28;20379;-70
2022/05/10 02:40:51;;;;;;;;;;;;;;;8.46;100.00;96433.59;1036054;28;19906;-70
2022/05/10 02:41:21;;;;;;;;;;;;;;;8.48;100.00;96444.63;1032046;28;19922;-70
2022/05/10 02:41:52;;;;;;;;;;;;;;;8.48;100.00;96434.16;1032564;28;19940;-70
2022/05/10 02:42:22;;;;;;;;;;;;;;;8.43;100.00;96432.25;1036350;28;19963;-71
2022/05/10 02:42:52;;;;;;;;;;;;;;;8.44;100.00;96436.44;1028647;28;19907;-70
2022/05/10 02:43:26;;;;;;;;;;;;;;;8.44;100.00;96438.25;1031898;28;19902;-70
2022/05/10 02:43:58;;;;;;;;;;;;;;;8.40;100.00;96431.91;1027835;28;19910;-70
2022/05/10 02:44:28;;;;;;;;;;;;;;;8.40;100.00;96434.53;1025392;28;19906;-71
2022/05/10 02:44:58;;;;;;;;;;;;;;;8.40;100.00;96434.53;1027963;28;19960;-70
2022/05/10 02:45:29;;;;;;;;;;;;;;;8.40;100.00;96434.53;1020630;28;19950;-70
2022/05/10 02:45:59;;;;;;;;;;;;;;;8.38;100.00;96433.94;1023966;29;19902;-70
2022/05/10 02:46:29;;;;;;;;;;;;;;;8.35;100.00;96432.59;1024139;28;19937;-70
2022/05/10 02:47:00;;;;;;;;;;;;;;;8.37;100.00;96434.97;1028258;28;19910;-70
2022/05/10 02:47:38;;;;;;;;;;;;;;;8.37;100.00;96437.56;1039179;28;19913;-70
2022/05/10 02:48:21;;;;;;;;;;;;;;;8.37;100.00;96437.56;1037393;28;19906;-70
2022/05/10 02:48:51;;;;;;;;;;;;;;;8.35;100.00;96437.00;1032008;28;19909;-70
2022/05/10 02:49:21;;;;;;;;;;;;;;;8.34;100.00;96435.41;1031934;28;19914;-70
2022/05/10 02:49:52;;;;;;;;;;;;;;;8.32;100.00;96437.47;1029145;28;19918;-70
2022/05/10 02:50:32;;;;;;;;;;;;;;;8.29;100.00;96432.72;1032056;28;19929;-70
2022/05/10 02:51:03;;;;;;;;;;;;;;;8.29;100.00;96435.31;1031969;28;20335;-71
2022/05/10 02:51:33;;;;;;;;;;;;;;;8.26;100.00;96429.53;1033278;28;20000;-71
2022/05/10 02:52:03;;;;;;;;;;;;;;;8.24;100.00;96434.19;1032724;28;19921;-70
2022/05/10 02:52:34;;;;;;;;;;;;;;;8.22;100.00;96431.00;1032856;28;19914;-70
2022/05/10 02:53:04;;;;;;;;;;;;;;;8.23;100.00;96434.41;1040896;28;19913;-70
2022/05/10 02:53:34;;;;;;;;;;;;;;;8.20;100.00;96427.81;1040795;28;19917;-71
2022/05/10 02:54:07;;;;;;;;;;;;;;;8.19;100.00;96433.28;1037800;28;19952;-71
2022/05/10 02:54:37;;;;;;;;;;;;;;;8.18;100.00;96429.88;1036215;28;19964;-72
2022/05/10 02:55:15;;;;;;;;;;;;;;;8.18;100.00;96436.91;1036231;28;19936;-71
2022/05/10 02:55:45;;;;;;;;;;;;;;;8.18;100.00;96432.50;1031738;28;19960;-70
2022/05/10 02:56:16;;;;;;;;;;;;;;;8.19;100.00;96436.69;1028077;28;20371;-69
2022/05/10 02:56:46;;;;;;;;;;;;;;;8.17;100.00;96430.09;1029117;28;19925;-71
2022/05/10 02:57:17;;;;;;;;;;;;;;;8.16;100.00;96429.31;1032096;28;19906;-70
2022/05/10 02:57:47;;;;;;;;;;;;;;;8.14;100.00;96433.97;1027157;28;19910;-69
2022/05/10 02:58:29;;;;;;;;;;;;;;;8.13;100.00;96428.97;1025367;28;19910;-70
2022/05/10 02:59:03;;;;;;;;;;;;;;;8.11;100.00;96426.56;1028688;28;20089;-72
2022/05/10 02:59:33;;;;;;;;;;;;;;;8.13;100.00;96428.97;1028523;28;19914;-70
2022/05/10 03:00:04;;;;;;;;;;;;;;;8.11;100.00;96425.78;1028988;28;19996;-70
2022/05/10 03:00:34;;;;;;;;;;;;;;;8.10;100.00;96435.44;1031641;28;20008;-70
2022/05/10 03:01:23;;;;;;;;;;;;;;;8.06;100.00;96431.72;1035339;28;20049;-69